Time;durP1;ratioP1;P1;durP2;ratioP2;P2;SDS_P1;SDS_P2;PMS_P1;PMS_P2;Temp;Humidity;BMP_temperature;BMP_pressure;BME280_temperature;BME280_humidity;BME280_pressure;Samples;Min_cycle;Max_cycle;Signal;HPM_P1;HPM_P2
2021/01/16 00:01:42;;;;;;;29.23;14.67;;;;;;;;;;5076807;28;20233;-85
2021/01/16 00:04:07;;;;;;;31.87;15.53;;;;;;;;;;5076327;28;20193;-85
2021/01/16 00:06:35;;;;;;;35.43;17.00;;;;;;;;;;5076446;28;20682;-85
2021/01/16 00:09:01;;;;;;;30.43;15.37;;;;;;;;;;5076708;28;20178;-85
2021/01/16 00:11:26;;;;;;;33.83;17.37;;;;;;;;;;5076580;28;20528;-85
2021/01/16 00:13:51;;;;;;;31.67;16.20;;;;;;;;;;5076352;28;20598;-85
2021/01/16 00:16:17;;;;;;;30.87;16.50;;;;;;;;;;5076514;28;20561;-86
2021/01/16 00:18:42;;;;;;;35.70;18.77;;;;;;;;;;5076531;28;20581;-85
2021/01/16 00:21:07;;;;;;;32.60;17.50;;;;;;;;;;5076474;28;20171;-85
2021/01/16 00:23:33;;;;;;;37.30;17.80;;;;;;;;;;5076706;28;20169;-86
2021/01/16 00:25:58;;;;;;;30.60;16.93;;;;;;;;;;5075984;28;20202;-85
2021/01/16 00:28:25;;;;;;;33.93;18.07;;;;;;;;;;5075861;28;20187;-85
2021/01/16 00:30:50;;;;;;;32.67;18.33;;;;;;;;;;5077096;28;20207;-85
2021/01/16 00:33:19;;;;;;;44.57;20.73;;;;;;;;;;5076221;28;20176;-85
2021/01/16 00:35:45;;;;;;;50.20;20.87;;;;;;;;;;5074846;28;20593;-85
2021/01/16 00:38:10;;;;;;;39.63;19.27;;;;;;;;;;5076103;28;20202;-85
2021/01/16 00:40:37;;;;;;;34.80;17.73;;;;;;;;;;5076081;28;20165;-85
2021/01/16 00:43:04;;;;;;;34.73;18.23;;;;;;;;;;5076321;28;20182;-85
2021/01/16 00:45:30;;;;;;;41.27;19.43;;;;;;;;;;5075866;28;20245;-85
2021/01/16 00:47:55;;;;;;;35.63;18.03;;;;;;;;;;5076156;28;20258;-85
2021/01/16 00:50:21;;;;;;;38.13;18.13;;;;;;;;;;5075906;28;20522;-85
2021/01/16 00:52:56;;;;;;;38.77;20.03;;;;;;;;;;5075849;28;20167;-85
2021/01/16 00:55:22;;;;;;;39.77;20.03;;;;;;;;;;5075693;28;20261;-85
2021/01/16 00:57:47;;;;;;;47.03;21.17;;;;;;;;;;5075463;28;20214;-85
2021/01/16 01:00:13;;;;;;;46.00;21.07;;;;;;;;;;5076020;28;20199;-85
2021/01/16 01:02:42;;;;;;;43.20;21.07;;;;;;;;;;5075921;28;20609;-85
2021/01/16 01:05:08;;;;;;;47.50;22.43;;;;;;;;;;5075501;28;20256;-85
2021/01/16 01:07:34;;;;;;;46.57;22.63;;;;;;;;;;5075451;28;20222;-85
2021/01/16 01:09:59;;;;;;;57.70;26.33;;;;;;;;;;5075116;28;20194;-85
2021/01/16 01:12:24;;;;;;;69.90;31.30;;;;;;;;;;5075434;28;20273;-85
2021/01/16 01:14:49;;;;;;;84.10;34.60;;;;;;;;;;5075483;28;20209;-84
2021/01/16 01:17:15;;;;;;;90.90;35.33;;;;;;;;;;5075382;28;20178;-85
2021/01/16 01:19:41;;;;;;;72.90;34.10;;;;;;;;;;5075779;28;20186;-85
2021/01/16 01:22:07;;;;;;;77.87;33.80;;;;;;;;;;5075398;28;20179;-85
2021/01/16 01:24:32;;;;;;;80.60;34.70;;;;;;;;;;5075053;28;20171;-85
2021/01/16 01:26:57;;;;;;;82.10;34.23;;;;;;;;;;5075310;28;20179;-85
2021/01/16 01:29:23;;;;;;;84.23;35.57;;;;;;;;;;5074734;28;20178;-85
2021/01/16 01:31:48;;;;;;;76.17;33.07;;;;;;;;;;5075279;28;20237;-85
2021/01/16 01:34:13;;;;;;;82.37;31.93;;;;;;;;;;5075571;28;20616;-85
2021/01/16 01:36:38;;;;;;;99.90;36.97;;;;;;;;;;5074620;28;20621;-85
2021/01/16 01:39:04;;;;;;;94.63;36.37;;;;;;;;;;5073846;28;20175;-85
2021/01/16 01:41:29;;;;;;;84.50;32.80;;;;;;;;;;5074468;28;20175;-85
2021/01/16 01:43:55;;;;;;;67.77;27.83;;;;;;;;;;5073515;28;20179;-85
2021/01/16 01:46:20;;;;;;;54.63;24.90;;;;;;;;;;5074733;28;20241;-84
2021/01/16 01:48:45;;;;;;;52.03;25.00;;;;;;;;;;5075341;28;20229;-84
2021/01/16 01:51:11;;;;;;;51.03;24.27;;;;;;;;;;5074488;28;20163;-84
2021/01/16 01:53:36;;;;;;;47.97;23.03;;;;;;;;;;5074615;28;20259;-84
2021/01/16 01:56:02;;;;;;;42.70;21.30;;;;;;;;;;5074495;28;20254;-84
2021/01/16 01:58:29;;;;;;;42.03;20.70;;;;;;;;;;5074780;28;20182;-84
2021/01/16 02:00:55;;;;;;;40.67;21.17;;;;;;;;;;5074242;28;20175;-84
2021/01/16 02:03:23;;;;;;;41.60;20.87;;;;;;;;;;5074604;28;20165;-84
2021/01/16 02:05:55;;;;;;;44.03;21.70;;;;;;;;;;5074625;28;20201;-84
2021/01/16 02:08:20;;;;;;;47.33;21.80;;;;;;;;;;5074670;28;20173;-84
2021/01/16 02:10:46;;;;;;;48.73;23.73;;;;;;;;;;5074649;28;20488;-84
2021/01/16 02:13:12;;;;;;;48.30;23.23;;;;;;;;;;5074044;28;20255;-83
2021/01/16 02:15:49;;;;;;;42.47;23.43;;;;;;;;;;5073976;28;20173;-84
2021/01/16 02:18:29;;;;;;;41.70;22.67;;;;;;;;;;5074781;28;20193;-84
2021/01/16 02:20:55;;;;;;;42.80;22.10;;;;;;;;;;5073834;28;20178;-84
2021/01/16 02:23:31;;;;;;;43.33;21.73;;;;;;;;;;5084725;28;20159;-82
2021/01/16 02:26:14;;;;;;;48.33;23.10;;;;;;;;;;5081146;28;20208;-85
2021/01/16 02:28:47;;;;;;;68.90;29.03;;;;;;;;;;5075087;28;20273;-85
2021/01/16 02:31:14;;;;;;;55.93;25.73;;;;;;;;;;5074420;28;20622;-84
2021/01/16 02:33:40;;;;;;;54.37;25.17;;;;;;;;;;5073831;28;20254;-84
2021/01/16 02:36:06;;;;;;;61.87;26.83;;;;;;;;;;5073783;28;20577;-84
2021/01/16 02:38:42;;;;;;;37.87;20.00;;;;;;;;;;5073852;28;20202;-84
2021/01/16 02:41:31;;;;;;;39.63;19.83;;;;;;;;;;5074374;28;20191;-84
2021/01/16 02:44:04;;;;;;;51.37;25.23;;;;;;;;;;5073868;28;20159;-84
2021/01/16 02:46:38;;;;;;;38.20;20.37;;;;;;;;;;5073843;28;20195;-85
2021/01/16 02:49:13;;;;;;;35.97;17.70;;;;;;;;;;5074451;28;20166;-84
2021/01/16 02:51:46;;;;;;;41.43;19.20;;;;;;;;;;5073793;28;20253;-84
2021/01/16 02:54:12;;;;;;;35.00;17.03;;;;;;;;;;5073862;28;20171;-85
2021/01/16 02:56:38;;;;;;;35.30;17.87;;;;;;;;;;5072520;28;20197;-84
2021/01/16 02:59:04;;;;;;;35.60;17.57;;;;;;;;;;5074671;28;20502;-85
2021/01/16 03:01:29;;;;;;;40.07;20.73;;;;;;;;;;5073243;28;20256;-85
2021/01/16 03:03:54;;;;;;;35.90;18.37;;;;;;;;;;5073722;28;20545;-85
2021/01/16 03:06:20;;;;;;;34.47;18.23;;;;;;;;;;5073325;28;20195;-85
2021/01/16 03:08:45;;;;;;;36.13;17.97;;;;;;;;;;5074210;28;20173;-85
2021/01/16 03:11:11;;;;;;;30.97;17.13;;;;;;;;;;5074144;28;20251;-85
2021/01/16 03:13:38;;;;;;;39.67;17.73;;;;;;;;;;5073214;28;20171;-85
2021/01/16 03:16:06;;;;;;;29.37;16.03;;;;;;;;;;5073704;28;20233;-85
2021/01/16 03:18:32;;;;;;;33.53;17.63;;;;;;;;;;5073744;28;20254;-85
2021/01/16 03:21:01;;;;;;;29.30;16.60;;;;;;;;;;5073587;28;20265;-85
2021/01/16 03:23:27;;;;;;;31.07;17.70;;;;;;;;;;5073497;28;20313;-85
2021/01/16 03:25:52;;;;;;;27.87;15.67;;;;;;;;;;5073468;28;20282;-85
2021/01/16 03:28:17;;;;;;;30.63;16.83;;;;;;;;;;5073765;28;20264;-85
2021/01/16 03:30:43;;;;;;;34.43;16.23;;;;;;;;;;5073691;28;20171;-85
2021/01/16 03:33:08;;;;;;;31.67;16.77;;;;;;;;;;5073731;28;20260;-85
2021/01/16 03:35:35;;;;;;;34.10;14.70;;;;;;;;;;5073170;28;20374;-85
2021/01/16 03:38:00;;;;;;;29.47;15.10;;;;;;;;;;5073695;28;20185;-85
2021/01/16 03:40:26;;;;;;;26.53;14.23;;;;;;;;;;5073924;28;20193;-84
2021/01/16 03:42:51;;;;;;;29.00;14.30;;;;;;;;;;5073033;28;20177;-84
2021/01/16 03:45:18;;;;;;;26.20;14.20;;;;;;;;;;5073256;28;20197;-84
2021/01/16 03:47:43;;;;;;;27.90;13.97;;;;;;;;;;5073322;28;20180;-84
2021/01/16 03:50:09;;;;;;;26.40;13.90;;;;;;;;;;5073644;28;20168;-84
2021/01/16 03:52:35;;;;;;;27.10;13.97;;;;;;;;;;5073880;28;20609;-84
2021/01/16 03:55:00;;;;;;;23.00;12.77;;;;;;;;;;5073700;28;20219;-84
2021/01/16 03:57:26;;;;;;;27.73;13.50;;;;;;;;;;5073268;28;20187;-85
2021/01/16 03:59:51;;;;;;;27.47;13.73;;;;;;;;;;5073916;28;20562;-85
2021/01/16 04:02:17;;;;;;;25.47;14.13;;;;;;;;;;5073622;28;20253;-85
2021/01/16 04:04:44;;;;;;;25.17;13.73;;;;;;;;;;5077516;28;20202;-85
2021/01/16 04:07:09;;;;;;;24.93;13.07;;;;;;;;;;5077453;28;20171;-85
2021/01/16 04:09:34;;;;;;;26.60;15.23;;;;;;;;;;5075791;28;20174;-85
2021/01/16 04:12:00;;;;;;;27.17;14.43;;;;;;;;;;5077494;28;20167;-85
2021/01/16 04:14:25;;;;;;;24.93;14.10;;;;;;;;;;5077511;28;20250;-85
2021/01/16 04:16:51;;;;;;;25.27;14.67;;;;;;;;;;5076802;28;20615;-86
2021/01/16 04:19:16;;;;;;;28.37;15.13;;;;;;;;;;5076831;28;20242;-85
2021/01/16 04:21:41;;;;;;;33.83;16.87;;;;;;;;;;5084190;28;20219;-84
2021/01/16 04:24:07;;;;;;;31.73;17.27;;;;;;;;;;5080905;28;20167;-84
2021/01/16 04:26:32;;;;;;;34.57;18.90;;;;;;;;;;5076315;28;20209;-84
2021/01/16 04:28:57;;;;;;;64.47;25.57;;;;;;;;;;5076594;28;20618;-85
2021/01/16 04:31:22;;;;;;;53.47;23.87;;;;;;;;;;5076212;28;20190;-85
2021/01/16 04:33:48;;;;;;;44.13;22.23;;;;;;;;;;5075959;28;20198;-84
2021/01/16 04:36:13;;;;;;;29.57;16.17;;;;;;;;;;5076703;28;20171;-84
2021/01/16 04:38:39;;;;;;;29.63;15.83;;;;;;;;;;5076123;28;20495;-84
2021/01/16 04:41:04;;;;;;;27.97;15.40;;;;;;;;;;5076373;28;20632;-84
2021/01/16 04:43:29;;;;;;;23.97;15.00;;;;;;;;;;5076258;28;20258;-84
2021/01/16 04:46:03;;;;;;;36.73;16.37;;;;;;;;;;5076282;28;20651;-84
2021/01/16 04:48:28;;;;;;;25.00;15.03;;;;;;;;;;5076344;28;20678;-84
2021/01/16 04:50:56;;;;;;;29.57;15.87;;;;;;;;;;5075981;28;20258;-84
2021/01/16 04:53:24;;;;;;;32.63;16.20;;;;;;;;;;5076124;28;20171;-84
2021/01/16 04:55:49;;;;;;;27.63;14.63;;;;;;;;;;5075787;28;20246;-84
2021/01/16 04:58:14;;;;;;;27.30;15.70;;;;;;;;;;5075613;28;20229;-84
2021/01/16 05:00:40;;;;;;;29.43;14.97;;;;;;;;;;5075737;28;20560;-85
2021/01/16 05:03:07;;;;;;;31.47;16.90;;;;;;;;;;5075740;28;20232;-85
2021/01/16 05:05:33;;;;;;;28.00;15.53;;;;;;;;;;5075318;28;20197;-84
2021/01/16 05:07:59;;;;;;;27.33;15.27;;;;;;;;;;5075419;28;20181;-84
2021/01/16 05:10:26;;;;;;;30.03;15.80;;;;;;;;;;5075498;28;20175;-84
2021/01/16 05:12:57;;;;;;;27.50;15.40;;;;;;;;;;5075281;28;20507;-84
2021/01/16 05:15:23;;;;;;;30.10;16.40;;;;;;;;;;5074502;28;20576;-84
2021/01/16 05:17:57;;;;;;;33.00;18.47;;;;;;;;;;5075079;28;20201;-84
2021/01/16 05:20:23;;;;;;;28.67;15.90;;;;;;;;;;5075734;28;20202;-84
2021/01/16 05:22:48;;;;;;;32.23;15.93;;;;;;;;;;5075123;28;20260;-84
2021/01/16 05:25:14;;;;;;;28.97;16.40;;;;;;;;;;5075243;28;20202;-84
2021/01/16 05:27:44;;;;;;;32.57;17.33;;;;;;;;;;5074926;28;20175;-84
2021/01/16 05:30:10;;;;;;;30.03;16.53;;;;;;;;;;5074741;28;20237;-84
2021/01/16 05:32:36;;;;;;;30.03;16.30;;;;;;;;;;5075329;28;20168;-84
2021/01/16 05:35:14;;;;;;;25.87;15.60;;;;;;;;;;5074756;28;20529;-84
2021/01/16 05:37:39;;;;;;;30.73;15.90;;;;;;;;;;5075485;28;20217;-84
2021/01/16 05:40:05;;;;;;;25.60;14.67;;;;;;;;;;5074800;28;20174;-84
2021/01/16 05:42:31;;;;;;;31.33;17.63;;;;;;;;;;5074935;28;20233;-84
2021/01/16 05:44:56;;;;;;;32.17;16.50;;;;;;;;;;5074545;28;20610;-84
2021/01/16 05:47:22;;;;;;;31.43;16.23;;;;;;;;;;5074541;28;20254;-84
2021/01/16 05:49:47;;;;;;;32.37;17.07;;;;;;;;;;5075268;28;20175;-84
2021/01/16 05:52:13;;;;;;;37.67;19.63;;;;;;;;;;5074738;28;20671;-83
2021/01/16 05:54:40;;;;;;;41.67;22.03;;;;;;;;;;5074990;28;20174;-83
2021/01/16 05:57:07;;;;;;;60.13;30.10;;;;;;;;;;5074660;28;20200;-83
2021/01/16 05:59:34;;;;;;;44.53;22.93;;;;;;;;;;5074980;28;20164;-83
2021/01/16 06:02:02;;;;;;;44.87;23.70;;;;;;;;;;5074759;28;20304;-84
2021/01/16 06:04:28;;;;;;;52.67;27.47;;;;;;;;;;5074416;28;20175;-84
2021/01/16 06:06:53;;;;;;;50.80;26.03;;;;;;;;;;5074199;28;20167;-83
2021/01/16 06:09:19;;;;;;;38.83;20.53;;;;;;;;;;5074769;28;20181;-83
2021/01/16 06:11:48;;;;;;;40.67;19.50;;;;;;;;;;5074657;28;20184;-83
2021/01/16 06:14:14;;;;;;;38.50;18.33;;;;;;;;;;5074107;28;20177;-83
2021/01/16 06:16:57;;;;;;;39.60;20.63;;;;;;;;;;5074142;28;20175;-83
2021/01/16 06:19:26;;;;;;;36.67;20.07;;;;;;;;;;5075250;28;20186;-83
2021/01/16 06:21:52;;;;;;;39.60;20.00;;;;;;;;;;5074268;28;20502;-83
2021/01/16 06:24:18;;;;;;;40.43;21.07;;;;;;;;;;5073929;28;20175;-84
2021/01/16 06:26:52;;;;;;;37.57;21.23;;;;;;;;;;5074338;28;20674;-84
2021/01/16 06:29:30;;;;;;;40.10;20.40;;;;;;;;;;5074148;28;20161;-84
2021/01/16 06:32:01;;;;;;;40.10;20.80;;;;;;;;;;5074006;28;20233;-84
2021/01/16 06:34:28;;;;;;;43.53;21.30;;;;;;;;;;5074637;28;20168;-84
2021/01/16 06:36:54;;;;;;;45.60;23.40;;;;;;;;;;5073788;28;20209;-84
2021/01/16 06:39:23;;;;;;;43.07;22.17;;;;;;;;;;5074303;28;20203;-84
2021/01/16 06:41:52;;;;;;;63.40;32.33;;;;;;;;;;5073972;28;20180;-84
2021/01/16 06:44:17;;;;;;;58.57;29.60;;;;;;;;;;5073906;28;20528;-84
2021/01/16 06:46:42;;;;;;;48.17;23.47;;;;;;;;;;5073444;28;20191;-84
2021/01/16 06:49:20;;;;;;;57.43;27.63;;;;;;;;;;5073559;28;20260;-85
2021/01/16 06:51:45;;;;;;;45.90;23.37;;;;;;;;;;5073993;28;20517;-84
2021/01/16 06:54:11;;;;;;;36.37;20.60;;;;;;;;;;5073576;28;20173;-85
2021/01/16 06:56:38;;;;;;;42.03;20.77;;;;;;;;;;5073424;28;20194;-84
2021/01/16 06:59:11;;;;;;;49.53;24.70;;;;;;;;;;5074092;28;20257;-84
2021/01/16 07:01:36;;;;;;;53.23;26.03;;;;;;;;;;5074354;28;20268;-84
2021/01/16 07:04:03;;;;;;;57.63;29.10;;;;;;;;;;5073712;28;20178;-84
2021/01/16 07:06:43;;;;;;;44.67;24.43;;;;;;;;;;5073302;28;20672;-84
2021/01/16 07:09:09;;;;;;;50.87;24.33;;;;;;;;;;5074225;28;20175;-84
2021/01/16 07:11:41;;;;;;;51.23;25.40;;;;;;;;;;5073662;28;20217;-84
2021/01/16 07:14:09;;;;;;;66.30;30.03;;;;;;;;;;5073277;28;20195;-84
2021/01/16 07:16:34;;;;;;;60.90;27.83;;;;;;;;;;5073871;28;20243;-84
2021/01/16 07:19:00;;;;;;;61.33;26.47;;;;;;;;;;5073310;28;20174;-84
2021/01/16 07:21:25;;;;;;;65.10;27.63;;;;;;;;;;5073520;28;20172;-84
2021/01/16 07:23:52;;;;;;;62.53;28.87;;;;;;;;;;5073482;28;20189;-84
2021/01/16 07:26:18;;;;;;;59.80;31.20;;;;;;;;;;5073451;28;20226;-85
2021/01/16 07:28:44;;;;;;;48.70;26.53;;;;;;;;;;5073431;28;20175;-85
2021/01/16 07:31:09;;;;;;;48.83;24.20;;;;;;;;;;5073719;28;20549;-85
2021/01/16 07:33:34;;;;;;;46.37;22.13;;;;;;;;;;5074215;28;20178;-85
2021/01/16 07:36:03;;;;;;;39.67;21.37;;;;;;;;;;5073633;28;20554;-85
2021/01/16 07:38:29;;;;;;;43.87;22.20;;;;;;;;;;5075289;28;20167;-84
2021/01/16 07:40:57;;;;;;;42.30;22.93;;;;;;;;;;5075908;28;20537;-85
2021/01/16 07:43:40;;;;;;;47.37;24.43;;;;;;;;;;5077589;28;20621;-85
2021/01/16 07:46:10;;;;;;;58.97;31.63;;;;;;;;;;5077214;28;20217;-86
2021/01/16 07:48:44;;;;;;;90.60;37.47;;;;;;;;;;5076733;28;20182;-86
2021/01/16 07:51:10;;;;;;;50.70;25.93;;;;;;;;;;5077238;28;20166;-86
2021/01/16 07:53:38;;;;;;;77.20;35.13;;;;;;;;;;5076627;28;20525;-86
2021/01/16 07:56:08;;;;;;;57.83;29.47;;;;;;;;;;5076856;28;20206;-86
2021/01/16 07:58:40;;;;;;;55.80;31.13;;;;;;;;;;5076553;28;20599;-86
2021/01/16 08:01:24;;;;;;;45.43;25.10;;;;;;;;;;5075185;28;20619;-86
2021/01/16 08:03:59;;;;;;;41.57;22.33;;;;;;;;;;5077386;28;20185;-86
2021/01/16 08:06:27;;;;;;;38.37;21.27;;;;;;;;;;5076372;28;20782;-86
2021/01/16 08:08:57;;;;;;;37.87;20.70;;;;;;;;;;5076560;28;20523;-86
2021/01/16 08:11:32;;;;;;;55.47;27.47;;;;;;;;;;5076546;28;20170;-86
2021/01/16 08:14:02;;;;;;;45.93;23.60;;;;;;;;;;5076695;28;20644;-86
2021/01/16 08:16:27;;;;;;;46.47;24.33;;;;;;;;;;5076801;28;20175;-86
2021/01/16 08:19:08;;;;;;;40.87;21.43;;;;;;;;;;5076602;28;20593;-86
2021/01/16 08:21:34;;;;;;;41.00;22.87;;;;;;;;;;5077030;28;20174;-86
2021/01/16 08:24:04;;;;;;;45.97;24.60;;;;;;;;;;5076416;28;20171;-86
2021/01/16 08:26:29;;;;;;;48.50;24.60;;;;;;;;;;5076563;28;20187;-86
2021/01/16 08:28:57;;;;;;;44.43;24.37;;;;;;;;;;5076296;28;20229;-86
2021/01/16 08:31:26;;;;;;;41.07;22.77;;;;;;;;;;5076510;28;20176;-86
2021/01/16 08:33:51;;;;;;;41.90;22.60;;;;;;;;;;5076034;28;20178;-86
2021/01/16 08:36:18;;;;;;;39.37;21.60;;;;;;;;;;5075930;28;20168;-87
2021/01/16 08:38:44;;;;;;;42.77;24.30;;;;;;;;;;5076441;28;20167;-86
2021/01/16 08:41:09;;;;;;;40.90;23.93;;;;;;;;;;5075824;28;20202;-87
2021/01/16 08:43:49;;;;;;;42.73;25.33;;;;;;;;;;5076034;28;20198;-86
2021/01/16 08:46:15;;;;;;;36.60;22.10;;;;;;;;;;5067423;28;20234;-87
2021/01/16 08:48:42;;;;;;;42.57;24.73;;;;;;;;;;5068855;28;20646;-87
2021/01/16 08:51:25;;;;;;;40.30;22.43;;;;;;;;;;5075663;28;20316;-86
2021/01/16 08:53:51;;;;;;;34.17;19.80;;;;;;;;;;5075850;28;20171;-86
2021/01/16 08:56:20;;;;;;;34.70;18.27;;;;;;;;;;5075517;28;20179;-87
2021/01/16 08:58:46;;;;;;;31.27;17.70;;;;;;;;;;5075719;28;20167;-86
2021/01/16 09:01:11;;;;;;;24.70;15.47;;;;;;;;;;5075553;28;20652;-85
2021/01/16 09:03:36;;;;;;;29.23;16.83;;;;;;;;;;5076230;28;20183;-86
2021/01/16 09:06:02;;;;;;;33.40;19.17;;;;;;;;;;5075523;28;20187;-86
2021/01/16 09:08:28;;;;;;;37.07;20.57;;;;;;;;;;5074491;28;20190;-86
2021/01/16 09:10:55;;;;;;;34.40;20.90;;;;;;;;;;5075475;28;20495;-86
2021/01/16 09:13:27;;;;;;;33.30;19.73;;;;;;;;;;5075607;28;20171;-86
2021/01/16 09:15:53;;;;;;;35.67;19.30;;;;;;;;;;5075317;28;20683;-85
2021/01/16 09:18:19;;;;;;;34.50;20.03;;;;;;;;;;5075658;28;20206;-85
2021/01/16 09:20:53;;;;;;;34.67;20.10;;;;;;;;;;5075905;28;20175;-87
2021/01/16 09:23:18;;;;;;;33.60;19.43;;;;;;;;;;5074940;28;20170;-86
2021/01/16 09:25:45;;;;;;;29.73;19.47;;;;;;;;;;5075262;28;20280;-86
2021/01/16 09:28:11;;;;;;;37.10;22.67;;;;;;;;;;5075116;28;20189;-86
2021/01/16 09:30:36;;;;;;;32.03;20.37;;;;;;;;;;5072472;28;20599;-85
2021/01/16 09:33:21;;;;;;;39.53;19.83;;;;;;;;;;5066919;28;20676;-86
2021/01/16 09:35:46;;;;;;;31.80;18.73;;;;;;;;;;5073866;28;20175;-85
2021/01/16 09:38:17;;;;;;;42.10;22.03;;;;;;;;;;5074922;28;20178;-85
2021/01/16 09:40:42;;;;;;;30.40;18.23;;;;;;;;;;5091522;28;20167;-86
2021/01/16 09:43:15;;;;;;;28.63;16.27;;;;;;;;;;5093204;28;20170;-87
2021/01/16 09:45:51;;;;;;;28.10;17.13;;;;;;;;;;5094543;28;20198;-86
2021/01/16 09:48:38;;;;;;;33.00;18.47;;;;;;;;;;5092611;28;20197;-86
2021/01/16 09:51:04;;;;;;;34.17;19.87;;;;;;;;;;5074281;28;20546;-86
2021/01/16 09:53:30;;;;;;;35.77;20.07;;;;;;;;;;5074457;28;20171;-86
2021/01/16 09:55:56;;;;;;;37.70;20.77;;;;;;;;;;5071476;28;20179;-86
2021/01/16 09:58:40;;;;;;;49.83;25.13;;;;;;;;;;5059722;28;20661;-86
2021/01/16 10:01:19;;;;;;;48.13;26.03;;;;;;;;;;5053900;28;20246;-86
2021/01/16 10:03:45;;;;;;;38.20;22.13;;;;;;;;;;5054647;28;20233;-87
2021/01/16 10:06:17;;;;;;;33.67;20.37;;;;;;;;;;5054200;28;20219;-86
2021/01/16 10:08:42;;;;;;;37.60;21.07;;;;;;;;;;5054404;28;20164;-86
2021/01/16 10:11:08;;;;;;;42.13;23.03;;;;;;;;;;5063791;28;20173;-84
2021/01/16 10:13:33;;;;;;;43.23;23.93;;;;;;;;;;5074357;28;20175;-86
2021/01/16 10:16:08;;;;;;;50.73;26.93;;;;;;;;;;5084694;28;20174;-86
2021/01/16 10:18:34;;;;;;;41.10;24.17;;;;;;;;;;5095015;28;20627;-87
2021/01/16 10:21:12;;;;;;;33.33;19.60;;;;;;;;;;5092013;28;20297;-86
2021/01/16 10:23:41;;;;;;;29.67;17.77;;;;;;;;;;5092884;28;20191;-85
2021/01/16 10:26:11;;;;;;;41.47;23.23;;;;;;;;;;5092607;28;20598;-85
2021/01/16 10:28:38;;;;;;;40.07;21.50;;;;;;;;;;5091262;28;20263;-85
2021/01/16 10:31:04;;;;;;;29.80;16.60;;;;;;;;;;5091274;28;20171;-85
2021/01/16 10:33:42;;;;;;;28.53;17.27;;;;;;;;;;5089821;28;20635;-85
2021/01/16 10:36:12;;;;;;;26.87;16.30;;;;;;;;;;5077730;28;20186;-85
2021/01/16 10:38:53;;;;;;;25.57;16.53;;;;;;;;;;5072454;28;20175;-85
2021/01/16 10:41:19;;;;;;;25.80;17.20;;;;;;;;;;5072367;28;20175;-86
2021/01/16 10:43:45;;;;;;;22.07;13.17;;;;;;;;;;5073856;28;20191;-86
2021/01/16 10:46:14;;;;;;;39.00;22.63;;;;;;;;;;5073803;28;20233;-86
2021/01/16 10:48:40;;;;;;;34.23;18.93;;;;;;;;;;5074177;28;20517;-86
2021/01/16 10:51:06;;;;;;;30.07;18.77;;;;;;;;;;5073753;28;20175;-85
2021/01/16 10:53:33;;;;;;;29.00;18.40;;;;;;;;;;5073809;28;20217;-86
2021/01/16 10:55:59;;;;;;;30.97;19.73;;;;;;;;;;5071798;28;20262;-85
2021/01/16 10:58:25;;;;;;;28.20;18.43;;;;;;;;;;5071546;28;20242;-85
2021/01/16 11:00:54;;;;;;;29.13;18.87;;;;;;;;;;5072152;28;20176;-86
2021/01/16 11:03:23;;;;;;;26.73;16.43;;;;;;;;;;5072389;28;20191;-85
2021/01/16 11:05:49;;;;;;;29.80;17.83;;;;;;;;;;5072234;28;20774;-85
2021/01/16 11:08:19;;;;;;;37.53;20.53;;;;;;;;;;5072900;28;20273;-85
2021/01/16 11:10:46;;;;;;;30.17;17.63;;;;;;;;;;5071131;28;20171;-84
2021/01/16 11:13:17;;;;;;;31.17;18.53;;;;;;;;;;5072584;28;20167;-85
2021/01/16 11:15:43;;;;;;;37.97;21.37;;;;;;;;;;5075187;28;20529;-84
2021/01/16 11:18:23;;;;;;;33.23;20.53;;;;;;;;;;5074770;28;20175;-85
2021/01/16 11:20:50;;;;;;;35.63;20.50;;;;;;;;;;5074736;28;20582;-85
2021/01/16 11:23:27;;;;;;;33.13;20.17;;;;;;;;;;5075770;28;20605;-86
2021/01/16 11:25:53;;;;;;;32.10;19.10;;;;;;;;;;5075093;28;20214;-84
2021/01/16 11:28:27;;;;;;;41.20;24.70;;;;;;;;;;5076319;28;20198;-85
2021/01/16 11:31:02;;;;;;;53.20;28.30;;;;;;;;;;5076350;28;20171;-84
2021/01/16 11:33:27;;;;;;;64.27;33.97;;;;;;;;;;5076471;28;20210;-84
2021/01/16 11:36:14;;;;;;;39.20;23.90;;;;;;;;;;5075987;28;20557;-84
2021/01/16 11:38:46;;;;;;;42.80;23.40;;;;;;;;;;5076029;28;20179;-85
2021/01/16 11:41:11;;;;;;;55.27;27.60;;;;;;;;;;5075722;28;20171;-84
2021/01/16 11:43:37;;;;;;;53.00;26.97;;;;;;;;;;5075935;28;20270;-84
2021/01/16 11:46:14;;;;;;;44.93;23.63;;;;;;;;;;5075634;28;20225;-84
2021/01/16 11:48:41;;;;;;;55.93;27.77;;;;;;;;;;5075558;28;20178;-84
2021/01/16 11:51:13;;;;;;;47.83;26.07;;;;;;;;;;5075886;28;20175;-84
2021/01/16 11:53:43;;;;;;;39.23;22.17;;;;;;;;;;5075190;28;20171;-84
2021/01/16 11:56:11;;;;;;;45.23;25.67;;;;;;;;;;5074399;28;20181;-86
2021/01/16 11:58:37;;;;;;;53.07;30.57;;;;;;;;;;5073171;28;20722;-88
2021/01/16 12:01:03;;;;;;;44.07;24.67;;;;;;;;;;5073729;28;20540;-88
2021/01/16 12:03:29;;;;;;;52.13;28.27;;;;;;;;;;5068278;28;20305;-87
2021/01/16 12:05:55;;;;;;;48.40;25.63;;;;;;;;;;5062010;28;20309;-86
2021/01/16 12:08:22;;;;;;;55.37;27.77;;;;;;;;;;5053022;28;20698;-87
2021/01/16 12:10:49;;;;;;;52.43;26.40;;;;;;;;;;5054648;28;20176;-87
2021/01/16 12:13:14;;;;;;;45.53;24.93;;;;;;;;;;5064576;28;20698;-88
2021/01/16 12:15:40;;;;;;;58.80;29.73;;;;;;;;;;5075015;28;20293;-88
2021/01/16 12:18:06;;;;;;;56.77;29.27;;;;;;;;;;5073447;28;20621;-88
2021/01/16 12:20:32;;;;;;;52.00;27.43;;;;;;;;;;5075227;28;20253;-88
2021/01/16 12:23:00;;;;;;;54.07;28.77;;;;;;;;;;5073598;28;20202;-88
2021/01/16 12:25:30;;;;;;;59.97;30.97;;;;;;;;;;5073652;28;20199;-88
2021/01/16 12:27:56;;;;;;;58.40;30.10;;;;;;;;;;5073726;28;20634;-88
2021/01/16 12:30:22;;;;;;;55.97;30.70;;;;;;;;;;5074087;28;20178;-88
2021/01/16 12:32:48;;;;;;;64.50;31.70;;;;;;;;;;5073698;28;20258;-89
2021/01/16 12:35:14;;;;;;;52.67;30.63;;;;;;;;;;5073615;28;20254;-87
2021/01/16 12:37:41;;;;;;;54.20;31.10;;;;;;;;;;5073375;28;20183;-88
2021/01/16 12:40:06;;;;;;;62.00;33.40;;;;;;;;;;5074730;28;20171;-88
2021/01/16 12:42:34;;;;;;;74.33;35.97;;;;;;;;;;5071038;28;20629;-88
2021/01/16 12:45:08;;;;;;;60.03;31.73;;;;;;;;;;5074925;28;20175;-87
2021/01/16 12:47:34;;;;;;;50.57;28.33;;;;;;;;;;5075025;28;20180;-88
2021/01/16 12:50:00;;;;;;;47.80;29.03;;;;;;;;;;5074808;28;20181;-87
2021/01/16 12:52:26;;;;;;;44.50;25.60;;;;;;;;;;5077722;28;20535;-88
2021/01/16 12:55:06;;;;;;;59.80;39.80;;;;;;;;;;5094577;28;20668;-88
2021/01/16 12:57:33;;;;;;;45.90;27.70;;;;;;;;;;5080846;28;20256;-88
2021/01/16 12:59:58;;;;;;;39.40;24.70;;;;;;;;;;5074306;28;20179;-86
2021/01/16 13:02:24;;;;;;;38.37;23.73;;;;;;;;;;5074313;28;20215;-87
2021/01/16 13:04:57;;;;;;;42.73;25.97;;;;;;;;;;5073796;28;20217;-87
2021/01/16 13:07:25;;;;;;;33.60;22.17;;;;;;;;;;5070575;28;20533;-86
2021/01/16 13:09:51;;;;;;;34.97;23.20;;;;;;;;;;5072474;28;20179;-87
2021/01/16 13:12:16;;;;;;;33.93;22.57;;;;;;;;;;5073500;28;20175;-88
2021/01/16 13:14:48;;;;;;;30.67;19.83;;;;;;;;;;5074260;28;20516;-88
2021/01/16 13:17:17;;;;;;;42.27;23.13;;;;;;;;;;5071951;28;20183;-87
2021/01/16 13:19:44;;;;;;;25.33;16.83;;;;;;;;;;5073015;28;20600;-88
2021/01/16 13:22:14;;;;;;;29.67;19.43;;;;;;;;;;5074346;28;20159;-88
2021/01/16 13:24:39;;;;;;;35.53;20.70;;;;;;;;;;5073433;28;20528;-88
2021/01/16 13:27:05;;;;;;;39.67;28.27;;;;;;;;;;5083166;28;20226;-86
2021/01/16 13:29:33;;;;;;;35.77;22.00;;;;;;;;;;5094132;28;20174;-88
2021/01/16 13:31:59;;;;;;;27.77;18.33;;;;;;;;;;5093248;28;20175;-87
2021/01/16 13:34:25;;;;;;;71.57;33.83;;;;;;;;;;5093225;28;20174;-87
2021/01/16 13:36:51;;;;;;;64.33;32.83;;;;;;;;;;5092546;28;20186;-87
2021/01/16 13:39:17;;;;;;;36.47;21.33;;;;;;;;;;5094441;28;20193;-88
2021/01/16 13:41:43;;;;;;;31.63;18.90;;;;;;;;;;5072927;28;20183;-86
2021/01/16 13:44:21;;;;;;;33.53;20.80;;;;;;;;;;5073734;28;20229;-86
2021/01/16 13:46:48;;;;;;;29.17;18.13;;;;;;;;;;5072396;28;20207;-88
2021/01/16 13:49:27;;;;;;;34.20;20.07;;;;;;;;;;5073895;28;20176;-88
2021/01/16 13:52:02;;;;;;;30.17;19.10;;;;;;;;;;5066906;28;20270;-88
2021/01/16 13:54:33;;;;;;;35.83;21.20;;;;;;;;;;5056127;28;20218;-88
2021/01/16 13:56:58;;;;;;;54.83;29.53;;;;;;;;;;5053361;28;20217;-87
2021/01/16 13:59:25;;;;;;;31.23;18.73;;;;;;;;;;5052401;28;20179;-87
2021/01/16 14:01:51;;;;;;;31.77;19.53;;;;;;;;;;5052107;28;20285;-87
2021/01/16 14:04:16;;;;;;;35.67;21.03;;;;;;;;;;5052069;28;20179;-88
2021/01/16 14:06:46;;;;;;;45.53;26.23;;;;;;;;;;5051838;28;20661;-88
2021/01/16 14:09:11;;;;;;;27.03;16.83;;;;;;;;;;5050760;28;20261;-88
2021/01/16 14:11:42;;;;;;;26.53;16.70;;;;;;;;;;5050352;28;20603;-88
2021/01/16 14:14:21;;;;;;;27.27;16.70;;;;;;;;;;5060621;28;20218;-87
2021/01/16 14:16:48;;;;;;;31.50;18.00;;;;;;;;;;5071716;28;20261;-88
2021/01/16 14:19:14;;;;;;;44.20;23.33;;;;;;;;;;5071898;28;20175;-89
2021/01/16 14:21:39;;;;;;;34.57;19.10;;;;;;;;;;5070659;28;20582;-89